This is the latest recevied weather packets stored in our database for station/object W4BOD. If no packets are shown the sender has not sent any weather packets the latest 10 day(s).
| Time | Temp. | Humidity | Pressure | Rain* | Wind** | Luminosity | Snow |
|---|---|---|---|---|---|---|---|
| 1777499199 | 21.67° C | 68% | 1012.8 hPa | 0 mm | - | 402 W/m² | - |
| 1777498895 | 22.22° C | 68% | 1012.8 hPa | 0 mm | - | 374 W/m² | - |
| 1777498592 | 21.67° C | 70% | 1012.8 hPa | 0 mm | - | 344 W/m² | - |
| 1777498288 | 21.67° C | 70% | 1012.7 hPa | 0 mm | - | 169 W/m² | - |
| 1777497987 | 21.67° C | 69% | 1012.8 hPa | 0 mm | - | 150 W/m² | - |
| 1777497682 | 21.67° C | 72% | 1012.8 hPa | 0 mm | - | 138 W/m² | - |
| 1777497379 | 21.11° C | 73% | 1013.2 hPa | 0 mm | - | 156 W/m² | - |
| 1777497075 | 21.11° C | 75% | 1013.1 hPa | 0 mm | - | 223 W/m² | - |
| 1777496772 | 21.11° C | 74% | 1013.1 hPa | 0 mm | - | 280 W/m² | - |
| 1777496469 | 20.56° C | 76% | 1013.1 hPa | 0 mm | - | 425 W/m² | - |
| 1777496165 | 21.11° C | 74% | 1012.9 hPa | 0 mm | - | 168 W/m² | - |
| 1777495861 | 20° C | 78% | 1013.1 hPa | 0 mm | - | 351 W/m² | - |
| 1777495557 | 18.89° C | 80% | 1013.4 hPa | 0 mm | - | 383 W/m² | - |
| 1777495253 | 18.89° C | 81% | 1013.5 hPa | 0 mm | - | 255 W/m² | - |
| 1777494951 | 19.44° C | 81% | 1013.4 hPa | 0 mm | - | 222 W/m² | - |
| 1777494648 | 20° C | 80% | 1013.7 hPa | 0 mm | - | 151 W/m² | - |
| 1777494345 | 20° C | 78% | 1013.6 hPa | 0 mm | - | 306 W/m² | - |
| 1777494041 | 20° C | 78% | 1013.6 hPa | 0 mm | - | 298 W/m² | - |
| 1777493739 | 20° C | 79% | 1013.7 hPa | 0 mm | - | 280 W/m² | - |
| 1777493437 | 20° C | 79% | 1013.5 hPa | 0 mm | - | 212 W/m² | - |
| 1777493133 | 20° C | 79% | 1013.6 hPa | 0 mm | - | 191 W/m² | - |
| 1777492830 | 20.56° C | 79% | 1013.6 hPa | 0 mm | - | 334 W/m² | - |
| 1777492526 | 20.56° C | 79% | 1013.6 hPa | 0 mm | - | 306 W/m² | - |
| 1777492222 | 20.56° C | 79% | 1013.6 hPa | 0 mm | - | 309 W/m² | - |
| 1777491920 | 20.56° C | 78% | 1013.6 hPa | 0 mm | - | 556 W/m² | - |
* Rain latest hour (hover to see other rain measurements)
** Current wind speed in m/s (hover to see current wind gust speed)